createdAt,value
2022-11-18T00:02:19.334Z,9.60
2022-11-18T00:07:21.601Z,6.60
2022-11-18T00:12:42.410Z,10.38
2022-11-18T00:17:44.409Z,9.27
2022-11-18T00:22:46.471Z,7.75
2022-11-18T00:27:48.480Z,7.68
2022-11-18T00:32:50.537Z,8.48
2022-11-18T00:37:52.874Z,9.70
2022-11-18T00:42:56.264Z,9.95
2022-11-18T00:47:58.422Z,7.50
2022-11-18T00:53:00.436Z,8.50
2022-11-18T00:58:02.441Z,8.52
2022-11-18T01:03:04.497Z,13.55
2022-11-18T01:08:08.947Z,12.38
2022-11-18T01:13:19.303Z,8.27
2022-11-18T01:18:27.276Z,11.35
2022-11-18T01:23:30.004Z,8.48
2022-11-18T01:28:32.537Z,10.88
2022-11-18T01:33:34.701Z,8.45
2022-11-18T01:38:36.697Z,11.55
2022-11-18T01:43:52.434Z,13.52
2022-11-18T01:49:04.360Z,11.25
2022-11-18T01:54:11.743Z,11.20
2022-11-18T01:59:17.256Z,10.32
2022-11-18T02:04:19.667Z,10.85
2022-11-18T02:09:22.559Z,11.32
2022-11-18T02:14:33.770Z,11.20
2022-11-18T02:19:47.870Z,8.82
2022-11-18T02:25:17.921Z,10.25
2022-11-18T02:30:20.168Z,12.90
2022-11-18T02:35:45.377Z,12.85
2022-11-18T02:40:52.320Z,9.57
2022-11-18T02:46:00.606Z,7.40
2022-11-18T02:51:06.425Z,8.38
2022-11-18T02:56:10.060Z,7.78
2022-11-18T03:01:21.517Z,8.13
2022-11-18T03:06:39.661Z,9.00
2022-11-18T03:12:03.983Z,10.32
2022-11-18T03:17:24.374Z,14.55
2022-11-18T03:22:30.788Z,6.18
2022-11-18T03:27:41.926Z,7.80
2022-11-18T03:32:47.668Z,11.45
2022-11-18T03:37:54.948Z,10.23
2022-11-18T03:43:02.781Z,9.38
2022-11-18T03:48:17.217Z,11.32
2022-11-18T03:53:21.303Z,8.60
2022-11-18T03:58:52.625Z,14.45
2022-11-18T04:03:54.914Z,8.23
2022-11-18T04:09:01.607Z,9.07
2022-11-18T04:14:07.141Z,13.45
2022-11-18T04:19:09.436Z,10.35
2022-11-18T04:24:11.509Z,5.93
2022-11-18T04:29:13.591Z,14.10
2022-11-18T04:34:15.828Z,10.45
2022-11-18T04:39:20.736Z,13.45
2022-11-18T04:44:28.432Z,11.40
2022-11-18T04:49:30.814Z,9.13
2022-11-18T04:54:32.917Z,9.88
2022-11-18T04:59:39.501Z,7.57
2022-11-18T05:04:42.320Z,10.60
2022-11-18T05:09:44.434Z,9.38
2022-11-18T05:14:50.072Z,8.35
2022-11-18T05:19:53.088Z,9.75
2022-11-18T05:24:55.185Z,7.45
2022-11-18T05:29:57.359Z,6.40
2022-11-18T05:34:59.494Z,9.10
2022-11-18T05:40:01.608Z,13.55
2022-11-18T05:45:04.314Z,8.02
2022-11-18T05:50:07.003Z,8.02
2022-11-18T05:55:12.134Z,9.60
2022-11-18T06:00:14.812Z,12.70
2022-11-18T06:05:18.514Z,9.95
2022-11-18T06:10:32.244Z,9.98
2022-11-18T06:15:38.694Z,10.02
2022-11-18T06:20:41.659Z,7.07
2022-11-18T06:25:44.136Z,11.27
2022-11-18T06:30:46.205Z,10.93
2022-11-18T06:35:48.318Z,13.75
2022-11-18T06:40:50.457Z,11.80
2022-11-18T06:46:11.095Z,11.85
2022-11-18T06:51:13.731Z,10.87
2022-11-18T06:56:17.308Z,7.55
2022-11-18T07:01:21.914Z,10.93
2022-11-18T07:06:26.269Z,7.82
2022-11-18T07:11:28.873Z,10.43
2022-11-18T07:16:30.870Z,9.05
2022-11-18T07:21:32.848Z,11.65
2022-11-18T07:26:35.771Z,10.52
2022-11-18T07:31:39.588Z,12.38
2022-11-18T07:36:42.017Z,11.73
2022-11-18T07:41:44.076Z,13.27
2022-11-18T07:46:46.159Z,12.90
2022-11-18T07:51:48.287Z,10.70
2022-11-18T07:56:50.509Z,10.73
2022-11-18T08:01:52.618Z,8.38
2022-11-18T08:06:54.998Z,7.88
2022-11-18T08:11:57.296Z,15.77
2022-11-18T08:16:59.282Z,12.30
2022-11-18T08:22:01.385Z,11.90
2022-11-18T08:27:03.531Z,14.88
2022-11-18T08:32:06.501Z,10.60
2022-11-18T08:37:08.489Z,12.05
2022-11-18T08:42:10.787Z,13.45
2022-11-18T08:47:12.822Z,15.35
2022-11-18T08:52:14.908Z,12.30
2022-11-18T08:57:16.937Z,14.82
2022-11-18T09:02:22.637Z,16.15
2022-11-18T09:07:24.768Z,13.15
2022-11-18T09:12:27.154Z,16.52
2022-11-18T09:17:29.214Z,12.93
2022-11-18T09:22:31.250Z,9.88
2022-11-18T09:27:33.373Z,9.95
2022-11-18T09:32:35.506Z,16.73
2022-11-18T09:37:37.623Z,11.73
2022-11-18T09:42:56.200Z,15.43
2022-11-18T09:48:00.646Z,11.98
2022-11-18T09:53:15.832Z,10.40
2022-11-18T09:58:35.125Z,12.02
2022-11-18T10:03:38.683Z,11.60
2022-11-18T10:09:01.837Z,15.93
2022-11-18T10:14:23.093Z,16.52
2022-11-18T10:19:51.916Z,9.90
2022-11-18T10:24:58.301Z,14.48
2022-11-18T10:30:01.419Z,9.18
2022-11-18T10:35:03.556Z,13.73
2022-11-18T10:40:06.520Z,11.45
2022-11-18T10:45:28.175Z,14.18
2022-11-18T10:50:39.365Z,12.80
2022-11-18T10:55:41.399Z,11.60
2022-11-18T11:00:47.605Z,14.38
2022-11-18T11:06:13.704Z,13.50
2022-11-18T11:11:26.606Z,13.38
2022-11-18T11:16:30.599Z,8.10
2022-11-18T11:21:32.670Z,12.77
2022-11-18T11:32:14.555Z,8.88
2022-11-18T11:37:29.081Z,8.82
2022-11-18T11:42:37.076Z,12.32
2022-11-18T11:47:47.812Z,10.68
2022-11-18T11:53:17.266Z,16.73
2022-11-18T11:58:22.295Z,11.63
2022-11-18T12:03:47.328Z,12.07
2022-11-18T12:09:08.047Z,14.50
2022-11-18T12:14:39.570Z,11.60
2022-11-18T12:19:41.964Z,11.88
2022-11-18T12:24:44.393Z,13.63
2022-11-18T12:29:49.566Z,10.70
2022-11-18T12:35:04.615Z,21.55
2022-11-18T12:40:08.647Z,15.70
2022-11-18T12:45:43.330Z,13.10
2022-11-18T12:50:59.598Z,15.05
2022-11-18T12:56:21.536Z,13.57
2022-11-18T13:01:26.947Z,14.82
2022-11-18T13:06:33.011Z,13.77
2022-11-18T13:11:46.385Z,14.50
2022-11-18T13:17:07.527Z,8.55
2022-11-18T13:22:36.526Z,10.40
2022-11-18T13:28:05.508Z,13.48
2022-11-18T13:33:11.407Z,15.55
2022-11-18T13:38:28.405Z,14.50
2022-11-18T13:43:32.347Z,11.85
2022-11-18T13:48:40.941Z,12.48
2022-11-18T13:53:44.436Z,10.18
2022-11-18T14:04:30.767Z,11.77
2022-11-18T14:09:32.742Z,14.27
2022-11-18T14:14:38.250Z,11.55
2022-11-18T14:19:41.652Z,11.43
2022-11-18T14:24:44.490Z,12.88
2022-11-18T14:29:50.470Z,9.30
2022-11-18T14:35:01.980Z,17.75
2022-11-18T14:40:04.222Z,12.80
2022-11-18T14:45:06.447Z,11.13
2022-11-18T14:50:12.881Z,16.17
2022-11-18T14:55:14.940Z,15.70
2022-11-18T15:00:17.704Z,21.10
2022-11-18T15:05:19.889Z,20.92
2022-11-18T15:10:21.866Z,14.30
2022-11-18T15:15:23.929Z,15.25
2022-11-18T15:20:26.060Z,11.65
2022-11-18T15:25:28.166Z,16.27
2022-11-18T15:30:30.218Z,14.98
2022-11-18T15:35:32.214Z,12.70
2022-11-18T15:40:35.043Z,12.02
2022-11-18T15:45:37.065Z,12.48
2022-11-18T15:50:39.082Z,13.45
2022-11-18T15:55:41.130Z,12.27
2022-11-18T16:00:45.105Z,12.80
2022-11-18T16:05:47.438Z,15.45
2022-11-18T16:11:13.774Z,17.65
2022-11-18T16:16:25.201Z,18.65
2022-11-18T16:21:28.463Z,19.45
2022-11-18T16:26:31.580Z,19.33
2022-11-18T16:31:40.291Z,18.20
2022-11-18T16:36:44.572Z,18.27
2022-11-18T16:41:46.708Z,21.75
2022-11-18T16:46:53.673Z,21.08
2022-11-18T16:51:56.942Z,18.65
2022-11-18T16:56:59.488Z,20.35
2022-11-18T17:02:02.097Z,17.48
2022-11-18T17:07:05.292Z,17.63
2022-11-18T17:12:07.671Z,18.40
2022-11-18T17:17:09.859Z,17.05
2022-11-18T17:22:11.974Z,27.52
2022-11-18T17:27:13.997Z,17.42
2022-11-18T17:32:16.632Z,22.35
2022-11-18T17:37:18.599Z,21.08
2022-11-18T17:42:23.326Z,20.73
2022-11-18T17:47:25.505Z,19.63
2022-11-18T17:52:27.471Z,25.58
2022-11-18T17:57:32.219Z,21.92
2022-11-18T18:02:34.342Z,24.50
2022-11-18T18:07:36.457Z,26.10
2022-11-18T18:12:57.057Z,27.02
2022-11-18T18:17:59.798Z,24.60
2022-11-18T18:23:01.891Z,28.00
2022-11-18T18:28:06.101Z,31.92
2022-11-18T18:33:08.086Z,32.72
2022-11-18T18:38:10.149Z,27.38
2022-11-18T18:43:12.694Z,28.88
2022-11-18T18:48:14.693Z,32.35
2022-11-18T18:53:16.785Z,33.67
2022-11-18T18:58:18.799Z,35.20
2022-11-18T19:03:20.892Z,39.63
2022-11-18T19:08:22.923Z,32.80
2022-11-18T19:13:28.367Z,36.95
2022-11-18T19:18:34.598Z,38.45
2022-11-18T19:23:36.583Z,38.92
2022-11-18T19:28:38.675Z,35.40
2022-11-18T19:33:40.740Z,33.53
2022-11-18T19:38:42.932Z,34.83
2022-11-18T19:43:45.217Z,46.50
2022-11-18T19:48:48.587Z,40.10
2022-11-18T19:53:57.008Z,36.30
2022-11-18T19:59:01.830Z,33.75
2022-11-18T20:04:05.561Z,38.67
2022-11-18T20:09:09.303Z,39.58
2022-11-18T20:14:12.454Z,41.92
2022-11-18T20:19:17.166Z,37.92
2022-11-18T20:24:19.441Z,33.35
2022-11-18T20:29:21.882Z,32.75
2022-11-18T20:34:24.292Z,34.17
2022-11-18T20:39:26.491Z,37.67
2022-11-18T20:44:28.656Z,36.05
2022-11-18T20:49:30.742Z,41.45
2022-11-18T20:54:33.752Z,38.53
2022-11-18T20:59:35.900Z,40.25
2022-11-18T21:04:38.412Z,34.40
2022-11-18T21:09:40.655Z,39.38
2022-11-18T21:14:42.759Z,44.83
2022-11-18T21:19:52.771Z,43.25
2022-11-18T21:24:55.053Z,44.65
2022-11-18T21:29:57.223Z,49.95
2022-11-18T21:34:59.403Z,45.03
2022-11-18T21:40:01.595Z,47.85
2022-11-18T21:45:03.818Z,53.22
2022-11-18T21:50:06.401Z,47.03
2022-11-18T21:55:08.628Z,50.35
2022-11-18T22:00:11.039Z,52.00
2022-11-18T22:05:15.081Z,51.75
2022-11-18T22:10:18.837Z,51.00
2022-11-18T22:15:20.885Z,49.15
2022-11-18T22:20:22.963Z,46.33
2022-11-18T22:25:24.955Z,46.65
2022-11-18T22:30:27.013Z,29.83
2022-11-18T22:35:29.096Z,21.77
2022-11-18T22:40:31.198Z,18.55
2022-11-18T22:45:33.222Z,20.38
2022-11-18T22:50:35.201Z,17.25
2022-11-18T22:55:37.282Z,19.17
2022-11-18T23:00:39.316Z,19.17
2022-11-18T23:05:45.873Z,18.08
2022-11-18T23:10:48.532Z,20.20
2022-11-18T23:15:50.485Z,18.95
2022-11-18T23:20:53.071Z,17.25
2022-11-18T23:25:55.716Z,20.33
2022-11-18T23:31:08.115Z,21.35
2022-11-18T23:36:12.028Z,21.55
2022-11-18T23:41:16.122Z,20.73
2022-11-18T23:46:19.425Z,23.10
2022-11-18T23:51:23.307Z,20.42
2022-11-18T23:56:27.186Z,22.15
